sensor_id;sensor_type;location;lat;lon;timestamp;temperature;humidity
11840;DHT22;5979;50.800;4.904;2023-02-27T00:00:48;1.00;99.90
11840;DHT22;5979;50.800;4.904;2023-02-27T00:03:14;1.00;99.90
11840;DHT22;5979;50.800;4.904;2023-02-27T00:05:40;1.00;99.90
11840;DHT22;5979;50.800;4.904;2023-02-27T00:08:06;0.90;99.90
11840;DHT22;5979;50.800;4.904;2023-02-27T00:10:32;0.90;99.90
11840;DHT22;5979;50.800;4.904;2023-02-27T00:12:58;0.90;99.90
11840;DHT22;5979;50.800;4.904;2023-02-27T00:15:24;0.90;99.90
11840;DHT22;5979;50.800;4.904;2023-02-27T00:17:50;0.90;99.90
11840;DHT22;5979;50.800;4.904;2023-02-27T00:20:17;0.90;99.90
11840;DHT22;5979;50.800;4.904;2023-02-27T00:22:44;0.80;99.90
11840;DHT22;5979;50.800;4.904;2023-02-27T00:25:11;0.80;99.90
11840;DHT22;5979;50.800;4.904;2023-02-27T00:27:37;0.80;99.90
11840;DHT22;5979;50.800;4.904;2023-02-27T00:30:08;0.70;99.90
11840;DHT22;5979;50.800;4.904;2023-02-27T00:32:34;0.70;99.90
11840;DHT22;5979;50.800;4.904;2023-02-27T00:35:03;0.70;99.90
11840;DHT22;5979;50.800;4.904;2023-02-27T00:37:28;0.70;99.90
11840;DHT22;5979;50.800;4.904;2023-02-27T00:39:54;0.60;99.90
11840;DHT22;5979;50.800;4.904;2023-02-27T00:42:20;0.60;99.90
11840;DHT22;5979;50.800;4.904;2023-02-27T00:44:45;0.60;99.90
11840;DHT22;5979;50.800;4.904;2023-02-27T00:47:11;0.60;99.90
11840;DHT22;5979;50.800;4.904;2023-02-27T00:49:36;0.60;99.90
11840;DHT22;5979;50.800;4.904;2023-02-27T00:52:02;0.50;99.90
11840;DHT22;5979;50.800;4.904;2023-02-27T00:54:28;0.50;99.90
11840;DHT22;5979;50.800;4.904;2023-02-27T00:56:54;0.60;99.90
11840;DHT22;5979;50.800;4.904;2023-02-27T00:59:19;0.50;99.90
11840;DHT22;5979;50.800;4.904;2023-02-27T01:01:46;0.60;99.90
11840;DHT22;5979;50.800;4.904;2023-02-27T01:04:11;0.50;99.90
11840;DHT22;5979;50.800;4.904;2023-02-27T01:06:37;0.50;99.90
11840;DHT22;5979;50.800;4.904;2023-02-27T01:09:03;0.40;99.90
11840;DHT22;5979;50.800;4.904;2023-02-27T01:11:29;0.40;99.90
11840;DHT22;5979;50.800;4.904;2023-02-27T01:13:55;0.40;99.90
11840;DHT22;5979;50.800;4.904;2023-02-27T01:16:22;0.50;99.90
11840;DHT22;5979;50.800;4.904;2023-02-27T01:18:48;0.50;99.90
11840;DHT22;5979;50.800;4.904;2023-02-27T01:21:13;0.40;99.90
11840;DHT22;5979;50.800;4.904;2023-02-27T01:23:39;0.40;99.90
11840;DHT22;5979;50.800;4.904;2023-02-27T01:26:05;0.40;99.90
11840;DHT22;5979;50.800;4.904;2023-02-27T01:28:31;0.40;99.90
11840;DHT22;5979;50.800;4.904;2023-02-27T01:30:56;0.40;99.90
11840;DHT22;5979;50.800;4.904;2023-02-27T01:33:22;0.40;99.90
11840;DHT22;5979;50.800;4.904;2023-02-27T01:35:47;0.40;99.90
11840;DHT22;5979;50.800;4.904;2023-02-27T01:38:13;0.40;99.90
11840;DHT22;5979;50.800;4.904;2023-02-27T01:40:40;0.30;99.90
11840;DHT22;5979;50.800;4.904;2023-02-27T01:43:14;0.30;99.90
11840;DHT22;5979;50.800;4.904;2023-02-27T01:45:42;0.20;99.90
11840;DHT22;5979;50.800;4.904;2023-02-27T01:51:07;0.10;99.90
11840;DHT22;5979;50.800;4.904;2023-02-27T01:53:36;0.20;99.90
11840;DHT22;5979;50.800;4.904;2023-02-27T01:56:23;0.20;99.90
11840;DHT22;5979;50.800;4.904;2023-02-27T01:58:51;0.20;99.90
11840;DHT22;5979;50.800;4.904;2023-02-27T02:01:19;0.10;99.90
11840;DHT22;5979;50.800;4.904;2023-02-27T02:03:46;0.10;99.90
11840;DHT22;5979;50.800;4.904;2023-02-27T02:06:13;0.10;99.90
11840;DHT22;5979;50.800;4.904;2023-02-27T02:08:43;0.10;99.90
11840;DHT22;5979;50.800;4.904;2023-02-27T02:11:10;0.10;99.90
11840;DHT22;5979;50.800;4.904;2023-02-27T02:13:39;0.10;99.90
11840;DHT22;5979;50.800;4.904;2023-02-27T02:16:14;0.10;99.90
11840;DHT22;5979;50.800;4.904;2023-02-27T02:18:49;0.00;99.90
11840;DHT22;5979;50.800;4.904;2023-02-27T02:38:32;-0.10;99.90
11840;DHT22;5979;50.800;4.904;2023-02-27T02:41:28;-0.10;99.90
11840;DHT22;5979;50.800;4.904;2023-02-27T02:44:06;-0.10;99.90
11840;DHT22;5979;50.800;4.904;2023-02-27T02:57:47;-0.10;99.90
11840;DHT22;5979;50.800;4.904;2023-02-27T03:00:20;-0.10;99.90
11840;DHT22;5979;50.800;4.904;2023-02-27T03:02:52;-0.10;99.90
11840;DHT22;5979;50.800;4.904;2023-02-27T03:05:48;-0.10;99.90
11840;DHT22;5979;50.800;4.904;2023-02-27T03:08:18;-0.20;99.90
11840;DHT22;5979;50.800;4.904;2023-02-27T03:10:52;-0.20;99.90
11840;DHT22;5979;50.800;4.904;2023-02-27T03:13:24;-0.20;99.90
11840;DHT22;5979;50.800;4.904;2023-02-27T03:18:29;-0.20;99.90
11840;DHT22;5979;50.800;4.904;2023-02-27T03:21:02;-0.30;99.90
11840;DHT22;5979;50.800;4.904;2023-02-27T03:23:32;-0.30;99.90
11840;DHT22;5979;50.800;4.904;2023-02-27T03:25:59;-0.30;99.90
11840;DHT22;5979;50.800;4.904;2023-02-27T03:28:29;-0.30;99.90
11840;DHT22;5979;50.800;4.904;2023-02-27T03:33:50;-0.30;99.90
11840;DHT22;5979;50.800;4.904;2023-02-27T03:42:09;-0.30;99.90
11840;DHT22;5979;50.800;4.904;2023-02-27T03:44:54;-0.30;99.90
11840;DHT22;5979;50.800;4.904;2023-02-27T03:47:22;-0.30;99.90
11840;DHT22;5979;50.800;4.904;2023-02-27T03:49:48;-0.40;99.90
11840;DHT22;5979;50.800;4.904;2023-02-27T03:52:19;-0.30;99.90
11840;DHT22;5979;50.800;4.904;2023-02-27T03:55:05;-0.30;99.90
11840;DHT22;5979;50.800;4.904;2023-02-27T03:57:34;-0.30;99.90
11840;DHT22;5979;50.800;4.904;2023-02-27T04:00:01;-0.20;99.90
11840;DHT22;5979;50.800;4.904;2023-02-27T04:02:29;-0.20;99.90
11840;DHT22;5979;50.800;4.904;2023-02-27T04:04:55;-0.20;99.90
11840;DHT22;5979;50.800;4.904;2023-02-27T04:30:14;-0.50;99.90
11840;DHT22;5979;50.800;4.904;2023-02-27T04:38:26;-0.50;99.90
11840;DHT22;5979;50.800;4.904;2023-02-27T04:41:15;-0.60;99.90
11840;DHT22;5979;50.800;4.904;2023-02-27T04:43:44;-0.60;99.90
11840;DHT22;5979;50.800;4.904;2023-02-27T04:46:14;-0.60;99.90
11840;DHT22;5979;50.800;4.904;2023-02-27T04:48:59;-0.70;99.90
11840;DHT22;5979;50.800;4.904;2023-02-27T04:54:38;-0.70;99.90
11840;DHT22;5979;50.800;4.904;2023-02-27T04:57:08;-0.70;99.90
11840;DHT22;5979;50.800;4.904;2023-02-27T04:59:42;-0.70;99.90
11840;DHT22;5979;50.800;4.904;2023-02-27T05:02:14;-0.70;99.90
11840;DHT22;5979;50.800;4.904;2023-02-27T05:04:42;-0.70;99.90
11840;DHT22;5979;50.800;4.904;2023-02-27T05:07:14;-0.70;99.90
11840;DHT22;5979;50.800;4.904;2023-02-27T05:09:42;-0.70;99.90
11840;DHT22;5979;50.800;4.904;2023-02-27T05:12:20;-0.70;99.90
11840;DHT22;5979;50.800;4.904;2023-02-27T05:14:57;-0.70;99.90
11840;DHT22;5979;50.800;4.904;2023-02-27T05:17:36;-0.60;99.90
11840;DHT22;5979;50.800;4.904;2023-02-27T05:20:03;-0.60;99.90
11840;DHT22;5979;50.800;4.904;2023-02-27T05:22:47;-0.70;99.90
11840;DHT22;5979;50.800;4.904;2023-02-27T05:29:02;-0.60;99.90
11840;DHT22;5979;50.800;4.904;2023-02-27T05:31:29;-0.60;99.90
11840;DHT22;5979;50.800;4.904;2023-02-27T05:34:03;-0.70;99.90
11840;DHT22;5979;50.800;4.904;2023-02-27T05:36:33;-0.70;99.90
11840;DHT22;5979;50.800;4.904;2023-02-27T05:39:06;-0.70;99.90
11840;DHT22;5979;50.800;4.904;2023-02-27T05:41:42;-0.80;99.90
11840;DHT22;5979;50.800;4.904;2023-02-27T05:44:19;-0.80;99.90
11840;DHT22;5979;50.800;4.904;2023-02-27T05:46:51;-0.80;99.90
11840;DHT22;5979;50.800;4.904;2023-02-27T05:49:34;-0.90;99.90
11840;DHT22;5979;50.800;4.904;2023-02-27T05:52:03;-0.90;99.90
11840;DHT22;5979;50.800;4.904;2023-02-27T05:54:53;-0.90;99.90
11840;DHT22;5979;50.800;4.904;2023-02-27T05:57:27;-0.90;99.90
11840;DHT22;5979;50.800;4.904;2023-02-27T06:00:03;-1.00;99.90
11840;DHT22;5979;50.800;4.904;2023-02-27T06:02:30;-0.90;99.90
11840;DHT22;5979;50.800;4.904;2023-02-27T06:04:56;-0.90;99.90
11840;DHT22;5979;50.800;4.904;2023-02-27T06:07:22;-0.90;99.90
11840;DHT22;5979;50.800;4.904;2023-02-27T06:09:48;-0.90;99.90
11840;DHT22;5979;50.800;4.904;2023-02-27T06:12:14;-1.00;99.90
11840;DHT22;5979;50.800;4.904;2023-02-27T06:14:40;-1.00;99.90
11840;DHT22;5979;50.800;4.904;2023-02-27T06:17:06;-1.00;99.90
11840;DHT22;5979;50.800;4.904;2023-02-27T06:19:31;-1.00;99.90
11840;DHT22;5979;50.800;4.904;2023-02-27T06:21:57;-1.00;99.90
11840;DHT22;5979;50.800;4.904;2023-02-27T06:24:22;-1.00;99.90
11840;DHT22;5979;50.800;4.904;2023-02-27T06:26:48;-1.00;99.90
11840;DHT22;5979;50.800;4.904;2023-02-27T06:29:14;-1.00;99.90
11840;DHT22;5979;50.800;4.904;2023-02-27T06:31:39;-1.00;99.90
11840;DHT22;5979;50.800;4.904;2023-02-27T06:34:05;-1.00;99.90
11840;DHT22;5979;50.800;4.904;2023-02-27T06:36:31;-1.00;99.90
11840;DHT22;5979;50.800;4.904;2023-02-27T06:38:56;-0.90;99.90
11840;DHT22;5979;50.800;4.904;2023-02-27T06:41:22;-0.90;99.90
11840;DHT22;5979;50.800;4.904;2023-02-27T06:43:48;-0.90;99.90
11840;DHT22;5979;50.800;4.904;2023-02-27T06:46:13;-0.90;99.90
11840;DHT22;5979;50.800;4.904;2023-02-27T06:48:39;-0.90;99.90
11840;DHT22;5979;50.800;4.904;2023-02-27T06:51:05;-0.80;99.90
11840;DHT22;5979;50.800;4.904;2023-02-27T06:53:30;-0.80;99.90
11840;DHT22;5979;50.800;4.904;2023-02-27T06:55:56;-0.70;99.90
11840;DHT22;5979;50.800;4.904;2023-02-27T06:58:22;-0.60;99.90
11840;DHT22;5979;50.800;4.904;2023-02-27T07:00:49;-0.50;99.90
11840;DHT22;5979;50.800;4.904;2023-02-27T07:03:15;-0.40;99.90
11840;DHT22;5979;50.800;4.904;2023-02-27T07:05:41;-0.30;99.90
11840;DHT22;5979;50.800;4.904;2023-02-27T07:08:07;-0.20;99.90
11840;DHT22;5979;50.800;4.904;2023-02-27T07:10:32;-0.20;99.90
11840;DHT22;5979;50.800;4.904;2023-02-27T07:12:58;0.00;99.90
11840;DHT22;5979;50.800;4.904;2023-02-27T07:15:24;0.10;99.90
11840;DHT22;5979;50.800;4.904;2023-02-27T07:17:49;0.20;99.90
11840;DHT22;5979;50.800;4.904;2023-02-27T07:20:15;0.30;99.90
11840;DHT22;5979;50.800;4.904;2023-02-27T07:22:41;0.40;99.90
11840;DHT22;5979;50.800;4.904;2023-02-27T07:25:07;0.50;99.90
11840;DHT22;5979;50.800;4.904;2023-02-27T07:27:33;0.60;99.90
11840;DHT22;5979;50.800;4.904;2023-02-27T07:29:59;0.70;99.90
11840;DHT22;5979;50.800;4.904;2023-02-27T07:32:26;0.70;99.90
11840;DHT22;5979;50.800;4.904;2023-02-27T07:34:51;0.80;99.90
11840;DHT22;5979;50.800;4.904;2023-02-27T07:37:17;0.80;99.90
11840;DHT22;5979;50.800;4.904;2023-02-27T07:39:43;0.80;99.90
11840;DHT22;5979;50.800;4.904;2023-02-27T07:42:09;0.90;99.90
11840;DHT22;5979;50.800;4.904;2023-02-27T07:44:35;0.90;99.90
11840;DHT22;5979;50.800;4.904;2023-02-27T07:47:01;0.90;99.90
11840;DHT22;5979;50.800;4.904;2023-02-27T07:49:26;1.00;99.90
11840;DHT22;5979;50.800;4.904;2023-02-27T07:51:52;1.00;99.90
11840;DHT22;5979;50.800;4.904;2023-02-27T07:54:18;1.10;99.90
11840;DHT22;5979;50.800;4.904;2023-02-27T07:56:43;1.20;99.90
11840;DHT22;5979;50.800;4.904;2023-02-27T07:59:09;1.20;99.90
11840;DHT22;5979;50.800;4.904;2023-02-27T08:01:35;1.30;99.90
11840;DHT22;5979;50.800;4.904;2023-02-27T08:04:00;1.20;99.90
11840;DHT22;5979;50.800;4.904;2023-02-27T08:06:26;1.30;99.90
11840;DHT22;5979;50.800;4.904;2023-02-27T08:08:52;1.40;99.90
11840;DHT22;5979;50.800;4.904;2023-02-27T08:11:18;1.50;99.90
11840;DHT22;5979;50.800;4.904;2023-02-27T08:13:43;1.50;99.90
11840;DHT22;5979;50.800;4.904;2023-02-27T08:16:12;1.60;99.90
11840;DHT22;5979;50.800;4.904;2023-02-27T08:18:38;1.60;99.90
11840;DHT22;5979;50.800;4.904;2023-02-27T08:21:03;1.70;99.90
11840;DHT22;5979;50.800;4.904;2023-02-27T08:23:30;1.80;99.90
11840;DHT22;5979;50.800;4.904;2023-02-27T08:25:56;2.00;99.90
11840;DHT22;5979;50.800;4.904;2023-02-27T08:28:23;2.10;99.90
11840;DHT22;5979;50.800;4.904;2023-02-27T08:30:49;2.10;99.90
11840;DHT22;5979;50.800;4.904;2023-02-27T08:33:14;2.30;99.90
11840;DHT22;5979;50.800;4.904;2023-02-27T08:35:40;2.40;99.90
11840;DHT22;5979;50.800;4.904;2023-02-27T08:38:06;2.40;99.90
11840;DHT22;5979;50.800;4.904;2023-02-27T08:40:31;2.40;99.90
11840;DHT22;5979;50.800;4.904;2023-02-27T08:42:57;2.40;99.90
11840;DHT22;5979;50.800;4.904;2023-02-27T08:45:23;2.40;99.90
11840;DHT22;5979;50.800;4.904;2023-02-27T08:47:48;2.50;99.90
11840;DHT22;5979;50.800;4.904;2023-02-27T08:50:14;2.50;99.90
11840;DHT22;5979;50.800;4.904;2023-02-27T08:52:40;2.50;99.90
11840;DHT22;5979;50.800;4.904;2023-02-27T08:55:06;2.50;99.90
11840;DHT22;5979;50.800;4.904;2023-02-27T08:57:32;2.60;99.90
11840;DHT22;5979;50.800;4.904;2023-02-27T08:59:58;2.70;99.90
11840;DHT22;5979;50.800;4.904;2023-02-27T09:02:23;2.60;99.90
11840;DHT22;5979;50.800;4.904;2023-02-27T09:04:51;2.70;99.90
11840;DHT22;5979;50.800;4.904;2023-02-27T09:07:17;2.90;99.90
11840;DHT22;5979;50.800;4.904;2023-02-27T09:09:43;3.00;99.90
11840;DHT22;5979;50.800;4.904;2023-02-27T09:12:09;3.20;99.90
11840;DHT22;5979;50.800;4.904;2023-02-27T09:14:35;3.30;99.90
11840;DHT22;5979;50.800;4.904;2023-02-27T09:17:01;3.30;99.90
11840;DHT22;5979;50.800;4.904;2023-02-27T09:19:26;3.60;99.90
11840;DHT22;5979;50.800;4.904;2023-02-27T09:21:52;3.70;99.90
11840;DHT22;5979;50.800;4.904;2023-02-27T09:24:18;3.70;99.90
11840;DHT22;5979;50.800;4.904;2023-02-27T09:26:43;3.80;99.90
11840;DHT22;5979;50.800;4.904;2023-02-27T09:29:10;3.90;99.90
11840;DHT22;5979;50.800;4.904;2023-02-27T09:31:35;3.60;99.90
11840;DHT22;5979;50.800;4.904;2023-02-27T09:34:01;3.70;99.90
11840;DHT22;5979;50.800;4.904;2023-02-27T09:36:27;3.80;99.90
11840;DHT22;5979;50.800;4.904;2023-02-27T09:38:53;3.70;99.90
11840;DHT22;5979;50.800;4.904;2023-02-27T09:43:57;4.10;99.90
11840;DHT22;5979;50.800;4.904;2023-02-27T09:46:23;4.10;99.90
11840;DHT22;5979;50.800;4.904;2023-02-27T09:48:50;4.20;99.90
11840;DHT22;5979;50.800;4.904;2023-02-27T09:51:18;4.20;99.90
11840;DHT22;5979;50.800;4.904;2023-02-27T09:53:55;4.00;99.90
11840;DHT22;5979;50.800;4.904;2023-02-27T09:56:45;4.20;99.90
11840;DHT22;5979;50.800;4.904;2023-02-27T09:59:28;4.20;99.90
11840;DHT22;5979;50.800;4.904;2023-02-27T10:04:44;4.00;99.90
11840;DHT22;5979;50.800;4.904;2023-02-27T10:09:55;4.10;99.90
11840;DHT22;5979;50.800;4.904;2023-02-27T10:13:02;4.20;99.90
11840;DHT22;5979;50.800;4.904;2023-02-27T10:15:36;4.30;99.90
11840;DHT22;5979;50.800;4.904;2023-02-27T10:20:38;4.50;99.90
11840;DHT22;5979;50.800;4.904;2023-02-27T10:23:12;4.60;99.90
11840;DHT22;5979;50.800;4.904;2023-02-27T10:25:43;4.60;99.90
11840;DHT22;5979;50.800;4.904;2023-02-27T10:28:15;4.60;99.90
11840;DHT22;5979;50.800;4.904;2023-02-27T10:30:47;4.70;99.90
11840;DHT22;5979;50.800;4.904;2023-02-27T10:33:36;4.60;99.90
11840;DHT22;5979;50.800;4.904;2023-02-27T10:36:04;4.70;99.90
11840;DHT22;5979;50.800;4.904;2023-02-27T10:38:42;4.70;99.90
11840;DHT22;5979;50.800;4.904;2023-02-27T10:41:11;4.70;99.90
11840;DHT22;5979;50.800;4.904;2023-02-27T10:43:37;4.80;99.90
11840;DHT22;5979;50.800;4.904;2023-02-27T10:46:30;4.70;99.90
11840;DHT22;5979;50.800;4.904;2023-02-27T10:49:00;4.70;99.90
11840;DHT22;5979;50.800;4.904;2023-02-27T10:51:29;4.60;99.90
11840;DHT22;5979;50.800;4.904;2023-02-27T10:59:54;4.80;99.90
11840;DHT22;5979;50.800;4.904;2023-02-27T11:02:41;4.90;99.90
11840;DHT22;5979;50.800;4.904;2023-02-27T11:05:26;4.90;99.90
11840;DHT22;5979;50.800;4.904;2023-02-27T11:07:52;5.00;99.90
11840;DHT22;5979;50.800;4.904;2023-02-27T11:10:25;5.00;99.90
11840;DHT22;5979;50.800;4.904;2023-02-27T11:12:58;5.10;99.90
11840;DHT22;5979;50.800;4.904;2023-02-27T11:15:32;5.10;99.90
11840;DHT22;5979;50.800;4.904;2023-02-27T11:18:18;5.10;99.90
11840;DHT22;5979;50.800;4.904;2023-02-27T11:20:44;5.10;99.90
11840;DHT22;5979;50.800;4.904;2023-02-27T11:23:18;5.20;99.90
11840;DHT22;5979;50.800;4.904;2023-02-27T11:25:44;5.20;99.90
11840;DHT22;5979;50.800;4.904;2023-02-27T11:28:26;5.20;99.90
11840;DHT22;5979;50.800;4.904;2023-02-27T11:31:05;5.10;99.90
11840;DHT22;5979;50.800;4.904;2023-02-27T11:33:37;5.00;99.90
11840;DHT22;5979;50.800;4.904;2023-02-27T11:36:04;5.10;99.90
11840;DHT22;5979;50.800;4.904;2023-02-27T11:38:30;5.20;99.90
11840;DHT22;5979;50.800;4.904;2023-02-27T11:41:02;5.20;99.90
11840;DHT22;5979;50.800;4.904;2023-02-27T11:43:35;5.30;99.90
11840;DHT22;5979;50.800;4.904;2023-02-27T11:46:06;5.40;99.90
11840;DHT22;5979;50.800;4.904;2023-02-27T11:48:38;5.40;99.90
11840;DHT22;5979;50.800;4.904;2023-02-27T11:54:16;5.30;99.90
11840;DHT22;5979;50.800;4.904;2023-02-27T11:57:08;5.20;99.90
11840;DHT22;5979;50.800;4.904;2023-02-27T12:05:09;5.40;99.90
11840;DHT22;5979;50.800;4.904;2023-02-27T12:10:27;5.30;99.90
11840;DHT22;5979;50.800;4.904;2023-02-27T12:13:10;5.30;99.90
11840;DHT22;5979;50.800;4.904;2023-02-27T12:15:46;5.30;99.90
11840;DHT22;5979;50.800;4.904;2023-02-27T12:18:20;5.20;99.90
11840;DHT22;5979;50.800;4.904;2023-02-27T12:20:56;5.30;99.90
11840;DHT22;5979;50.800;4.904;2023-02-27T12:23:43;5.20;99.90
11840;DHT22;5979;50.800;4.904;2023-02-27T12:26:26;5.20;99.90
11840;DHT22;5979;50.800;4.904;2023-02-27T12:36:44;5.50;99.90
11840;DHT22;5979;50.800;4.904;2023-02-27T12:39:21;5.40;99.90
11840;DHT22;5979;50.800;4.904;2023-02-27T12:45:06;5.40;99.90
11840;DHT22;5979;50.800;4.904;2023-02-27T12:50:56;5.40;99.90
11840;DHT22;5979;50.800;4.904;2023-02-27T12:53:26;5.60;99.90
11840;DHT22;5979;50.800;4.904;2023-02-27T12:56:02;5.60;99.90
11840;DHT22;5979;50.800;4.904;2023-02-27T13:01:11;5.50;99.90
11840;DHT22;5979;50.800;4.904;2023-02-27T13:06:53;5.50;99.90
11840;DHT22;5979;50.800;4.904;2023-02-27T13:09:43;5.50;99.90
11840;DHT22;5979;50.800;4.904;2023-02-27T13:15:07;5.60;99.90
11840;DHT22;5979;50.800;4.904;2023-02-27T13:18:07;5.60;99.90
11840;DHT22;5979;50.800;4.904;2023-02-27T13:20:46;5.60;99.90
11840;DHT22;5979;50.800;4.904;2023-02-27T13:23:25;5.70;99.90
11840;DHT22;5979;50.800;4.904;2023-02-27T13:25:52;5.80;99.90
11840;DHT22;5979;50.800;4.904;2023-02-27T13:28:25;5.80;99.90
11840;DHT22;5979;50.800;4.904;2023-02-27T13:31:05;5.80;99.90
11840;DHT22;5979;50.800;4.904;2023-02-27T13:33:50;5.80;99.90
11840;DHT22;5979;50.800;4.904;2023-02-27T13:36:30;5.80;99.90
11840;DHT22;5979;50.800;4.904;2023-02-27T13:39:00;5.70;99.90
11840;DHT22;5979;50.800;4.904;2023-02-27T13:43:58;5.70;99.90
11840;DHT22;5979;50.800;4.904;2023-02-27T13:46:32;5.60;99.90
11840;DHT22;5979;50.800;4.904;2023-02-27T13:56:37;5.50;99.90
11840;DHT22;5979;50.800;4.904;2023-02-27T13:59:26;5.50;99.90
11840;DHT22;5979;50.800;4.904;2023-02-27T14:01:59;5.60;99.90
11840;DHT22;5979;50.800;4.904;2023-02-27T14:04:28;5.60;99.90
11840;DHT22;5979;50.800;4.904;2023-02-27T14:06:59;5.70;99.90
11840;DHT22;5979;50.800;4.904;2023-02-27T14:09:40;5.70;99.90
11840;DHT22;5979;50.800;4.904;2023-02-27T14:12:30;5.60;99.90
11840;DHT22;5979;50.800;4.904;2023-02-27T14:14:57;5.60;99.90
11840;DHT22;5979;50.800;4.904;2023-02-27T14:20:09;5.70;99.90
11840;DHT22;5979;50.800;4.904;2023-02-27T14:22:41;5.60;99.90
11840;DHT22;5979;50.800;4.904;2023-02-27T14:25:45;5.60;99.90
11840;DHT22;5979;50.800;4.904;2023-02-27T14:31:22;5.70;99.90
11840;DHT22;5979;50.800;4.904;2023-02-27T14:33:51;5.60;99.90
11840;DHT22;5979;50.800;4.904;2023-02-27T14:36:23;5.60;99.90
11840;DHT22;5979;50.800;4.904;2023-02-27T14:38:53;5.70;99.90
11840;DHT22;5979;50.800;4.904;2023-02-27T14:41:46;5.70;99.90
11840;DHT22;5979;50.800;4.904;2023-02-27T14:44:27;5.60;99.90
11840;DHT22;5979;50.800;4.904;2023-02-27T14:46:54;5.70;99.90
11840;DHT22;5979;50.800;4.904;2023-02-27T14:49:25;5.70;99.90
11840;DHT22;5979;50.800;4.904;2023-02-27T14:51:52;5.60;99.90
11840;DHT22;5979;50.800;4.904;2023-02-27T14:54:21;5.60;99.90
11840;DHT22;5979;50.800;4.904;2023-02-27T14:57:01;5.70;99.90
11840;DHT22;5979;50.800;4.904;2023-02-27T14:59:32;5.70;99.90
11840;DHT22;5979;50.800;4.904;2023-02-27T15:01:59;5.70;99.90
11840;DHT22;5979;50.800;4.904;2023-02-27T15:04:30;5.70;99.90
11840;DHT22;5979;50.800;4.904;2023-02-27T15:06:57;5.70;99.90
11840;DHT22;5979;50.800;4.904;2023-02-27T15:09:40;5.70;99.90
11840;DHT22;5979;50.800;4.904;2023-02-27T15:12:16;5.60;99.90
11840;DHT22;5979;50.800;4.904;2023-02-27T15:14:48;5.40;99.90
11840;DHT22;5979;50.800;4.904;2023-02-27T15:17:25;5.30;99.90
11840;DHT22;5979;50.800;4.904;2023-02-27T15:19:55;5.40;99.90
11840;DHT22;5979;50.800;4.904;2023-02-27T15:22:27;5.40;99.90
11840;DHT22;5979;50.800;4.904;2023-02-27T15:24:57;5.50;99.90
11840;DHT22;5979;50.800;4.904;2023-02-27T15:27:25;5.50;99.90
11840;DHT22;5979;50.800;4.904;2023-02-27T15:29:53;5.50;99.90
11840;DHT22;5979;50.800;4.904;2023-02-27T15:32:32;5.60;99.90
11840;DHT22;5979;50.800;4.904;2023-02-27T15:35:03;5.70;99.90
11840;DHT22;5979;50.800;4.904;2023-02-27T15:37:31;5.70;99.90
11840;DHT22;5979;50.800;4.904;2023-02-27T15:39:58;5.70;99.90
11840;DHT22;5979;50.800;4.904;2023-02-27T15:42:32;5.60;99.90
11840;DHT22;5979;50.800;4.904;2023-02-27T15:45:01;5.50;99.90
11840;DHT22;5979;50.800;4.904;2023-02-27T15:47:29;5.40;99.90
11840;DHT22;5979;50.800;4.904;2023-02-27T15:50:10;5.30;99.90
11840;DHT22;5979;50.800;4.904;2023-02-27T15:52:57;5.10;99.90
11840;DHT22;5979;50.800;4.904;2023-02-27T15:55:27;5.10;99.90
11840;DHT22;5979;50.800;4.904;2023-02-27T15:57:53;5.10;99.90
11840;DHT22;5979;50.800;4.904;2023-02-27T16:00:20;5.10;99.90
11840;DHT22;5979;50.800;4.904;2023-02-27T16:02:55;5.10;99.90
11840;DHT22;5979;50.800;4.904;2023-02-27T16:07:53;5.10;99.90
11840;DHT22;5979;50.800;4.904;2023-02-27T16:10:23;5.00;99.90
11840;DHT22;5979;50.800;4.904;2023-02-27T16:12:49;5.00;99.90
11840;DHT22;5979;50.800;4.904;2023-02-27T16:15:30;5.00;99.90
11840;DHT22;5979;50.800;4.904;2023-02-27T16:18:01;5.00;99.90
11840;DHT22;5979;50.800;4.904;2023-02-27T16:25:39;5.00;99.90
11840;DHT22;5979;50.800;4.904;2023-02-27T16:28:12;5.10;99.90
11840;DHT22;5979;50.800;4.904;2023-02-27T16:30:38;5.10;99.90
11840;DHT22;5979;50.800;4.904;2023-02-27T16:33:05;5.10;99.90
11840;DHT22;5979;50.800;4.904;2023-02-27T16:35:35;5.20;99.90
11840;DHT22;5979;50.800;4.904;2023-02-27T16:38:03;5.10;99.90
11840;DHT22;5979;50.800;4.904;2023-02-27T16:40:29;5.00;99.90
11840;DHT22;5979;50.800;4.904;2023-02-27T16:42:55;4.90;99.90
11840;DHT22;5979;50.800;4.904;2023-02-27T16:45:28;4.80;99.90
11840;DHT22;5979;50.800;4.904;2023-02-27T16:47:56;4.70;99.90
11840;DHT22;5979;50.800;4.904;2023-02-27T16:50:38;4.60;99.90
11840;DHT22;5979;50.800;4.904;2023-02-27T16:53:05;4.60;99.90
11840;DHT22;5979;50.800;4.904;2023-02-27T16:55:31;4.60;99.90
11840;DHT22;5979;50.800;4.904;2023-02-27T16:57:57;4.50;99.90
11840;DHT22;5979;50.800;4.904;2023-02-27T17:00:23;4.40;99.90
11840;DHT22;5979;50.800;4.904;2023-02-27T17:02:49;4.30;99.90
11840;DHT22;5979;50.800;4.904;2023-02-27T17:05:16;4.40;99.90
11840;DHT22;5979;50.800;4.904;2023-02-27T17:07:43;4.30;99.90
11840;DHT22;5979;50.800;4.904;2023-02-27T17:10:19;4.30;99.90
11840;DHT22;5979;50.800;4.904;2023-02-27T17:12:46;4.20;99.90
11840;DHT22;5979;50.800;4.904;2023-02-27T17:15:13;4.20;99.90
11840;DHT22;5979;50.800;4.904;2023-02-27T17:17:39;4.10;99.90
11840;DHT22;5979;50.800;4.904;2023-02-27T17:20:05;4.10;99.90
11840;DHT22;5979;50.800;4.904;2023-02-27T17:22:35;4.10;99.90
11840;DHT22;5979;50.800;4.904;2023-02-27T17:25:02;4.10;99.90
11840;DHT22;5979;50.800;4.904;2023-02-27T17:27:27;4.00;99.90
11840;DHT22;5979;50.800;4.904;2023-02-27T17:29:53;3.90;99.90
11840;DHT22;5979;50.800;4.904;2023-02-27T17:32:19;3.90;99.90
11840;DHT22;5979;50.800;4.904;2023-02-27T17:34:44;3.90;99.90
11840;DHT22;5979;50.800;4.904;2023-02-27T17:37:10;3.80;99.90
11840;DHT22;5979;50.800;4.904;2023-02-27T17:39:36;3.80;99.90
11840;DHT22;5979;50.800;4.904;2023-02-27T17:42:02;3.80;99.90
11840;DHT22;5979;50.800;4.904;2023-02-27T17:44:28;3.70;99.90
11840;DHT22;5979;50.800;4.904;2023-02-27T17:46:54;3.70;99.90
11840;DHT22;5979;50.800;4.904;2023-02-27T17:49:19;3.70;99.90
11840;DHT22;5979;50.800;4.904;2023-02-27T17:51:45;3.70;99.90
11840;DHT22;5979;50.800;4.904;2023-02-27T17:54:11;3.70;99.90
11840;DHT22;5979;50.800;4.904;2023-02-27T17:56:37;3.70;99.90
11840;DHT22;5979;50.800;4.904;2023-02-27T17:59:03;3.60;99.90
11840;DHT22;5979;50.800;4.904;2023-02-27T18:01:29;3.60;99.90
11840;DHT22;5979;50.800;4.904;2023-02-27T18:03:55;3.60;99.90
11840;DHT22;5979;50.800;4.904;2023-02-27T18:06:21;3.60;99.90
11840;DHT22;5979;50.800;4.904;2023-02-27T18:08:47;3.60;99.90
11840;DHT22;5979;50.800;4.904;2023-02-27T18:11:17;3.50;99.90
11840;DHT22;5979;50.800;4.904;2023-02-27T18:13:44;3.50;99.90
11840;DHT22;5979;50.800;4.904;2023-02-27T18:16:10;3.50;99.90
11840;DHT22;5979;50.800;4.904;2023-02-27T18:18:37;3.50;99.90
11840;DHT22;5979;50.800;4.904;2023-02-27T18:21:08;3.50;99.90
11840;DHT22;5979;50.800;4.904;2023-02-27T18:23:35;3.50;99.90
11840;DHT22;5979;50.800;4.904;2023-02-27T18:26:01;3.50;99.90
11840;DHT22;5979;50.800;4.904;2023-02-27T18:28:26;3.50;99.90
11840;DHT22;5979;50.800;4.904;2023-02-27T18:30:52;3.50;99.90
11840;DHT22;5979;50.800;4.904;2023-02-27T18:33:18;3.50;99.90
11840;DHT22;5979;50.800;4.904;2023-02-27T18:35:44;3.40;99.90
11840;DHT22;5979;50.800;4.904;2023-02-27T18:38:10;3.30;99.90
11840;DHT22;5979;50.800;4.904;2023-02-27T18:40:36;3.30;99.90
11840;DHT22;5979;50.800;4.904;2023-02-27T18:43:02;3.30;99.90
11840;DHT22;5979;50.800;4.904;2023-02-27T18:45:27;3.30;99.90
11840;DHT22;5979;50.800;4.904;2023-02-27T18:47:54;3.30;99.90